Time;durP1;ratioP1;P1;durP2;ratioP2;P2;SDS_P1;SDS_P2;PMS_P1;PMS_P2;Temp;Humidity;BMP_temperature;BMP_pressure;BME280_temperature;BME280_humidity;BME280_pressure;Samples;Min_cycle;Max_cycle;Signal;HPM_P1;HPM_P2
2022/02/08 00:00:19;;;;;;;;;4.25;3.00;;;;;21.02;35.17;102861.44;5016188;28;51237;-47
2022/02/08 00:02:49;;;;;;;;;6.00;4.25;;;;;21.00;35.04;102860.78;5015943;28;51066;-49
2022/02/08 00:05:16;;;;;;;;;4.00;4.00;;;;;20.99;35.43;102850.78;5016452;28;51371;-49
2022/02/08 00:07:46;;;;;;;;;2.75;2.75;;;;;20.98;35.39;102854.59;5015439;28;51348;-49
2022/02/08 00:10:11;;;;;;;;;4.00;3.00;;;;;20.96;35.01;102860.28;5015910;28;51088;-46
2022/02/08 00:12:37;;;;;;;;;5.00;4.00;;;;;20.94;35.50;102855.97;5030808;28;51913;-47
2022/02/08 00:15:03;;;;;;;;;6.00;4.50;;;;;20.93;35.46;102860.63;5036194;28;51871;-43
2022/02/08 00:17:28;;;;;;;;;2.00;2.00;;;;;20.91;35.07;102862.69;5035645;28;51164;-48
2022/02/08 00:19:53;;;;;;;;;3.50;3.50;;;;;20.90;35.09;102860.97;5035751;28;51169;-48
2022/02/08 00:22:19;;;;;;;;;4.00;3.00;;;;;20.89;34.97;102851.00;5035019;28;51634;-44
2022/02/08 00:24:44;;;;;;;;;2.00;2.00;;;;;20.87;35.09;102858.59;5035204;28;51243;-45
2022/02/08 00:27:09;;;;;;;;;3.75;3.25;;;;;20.89;35.37;102852.88;5035545;28;51184;-48
2022/02/08 00:29:35;;;;;;;;;3.00;2.25;;;;;20.87;35.16;102850.31;5035929;28;51053;-46
2022/02/08 00:32:00;;;;;;;;;4.00;4.00;;;;;20.86;35.15;102858.75;5035530;28;51718;-47
2022/02/08 00:34:27;;;;;;;;;3.50;3.50;;;;;20.85;35.32;102846.03;5018280;28;50963;-47
2022/02/08 00:36:52;;;;;;;;;4.75;3.00;;;;;20.85;35.28;102846.88;5035673;28;51150;-49
2022/02/08 00:39:17;;;;;;;;;3.25;3.00;;;;;20.83;35.33;102848.94;5035730;28;51122;-49
2022/02/08 00:41:43;;;;;;;;;3.50;2.50;;;;;20.83;35.48;102850.81;5034542;28;51961;-47
2022/02/08 00:44:14;;;;;;;;;4.00;4.00;;;;;20.82;35.51;102855.47;5034768;28;51320;-46
2022/02/08 00:46:46;;;;;;;;;4.00;3.00;;;;;20.79;35.21;102853.09;5035347;28;51190;-48
2022/02/08 00:49:12;;;;;;;;;4.25;3.75;;;;;20.79;35.13;102858.59;5035785;28;51235;-47
2022/02/08 00:51:44;;;;;;;;;4.00;3.00;;;;;20.77;35.38;102855.16;5035159;28;51141;-45
2022/02/08 00:54:12;;;;;;;;;3.00;3.00;;;;;20.77;35.03;102849.66;5035020;28;51420;-44
2022/02/08 00:56:38;;;;;;;;;4.50;3.50;;;;;20.75;35.16;102854.50;5034637;28;51211;-49
2022/02/08 00:59:03;;;;;;;;;4.00;3.00;;;;;20.74;35.17;102844.50;5035457;28;51141;-48
2022/02/08 01:01:33;;;;;;;;;4.00;4.00;;;;;20.71;35.33;102842.94;5034209;28;52610;-43
2022/02/08 01:03:59;;;;;;;;;6.00;3.75;;;;;20.72;35.46;102847.41;5034405;28;51159;-46
2022/02/08 01:06:24;;;;;;;;;4.25;4.00;;;;;20.71;35.57;102844.84;5033595;28;51255;-50
2022/02/08 01:08:49;;;;;;;;;5.75;3.75;;;;;20.70;35.46;102851.38;5036211;28;51639;-44
2022/02/08 01:11:17;;;;;;;;;5.25;3.25;;;;;20.69;35.42;102853.28;5033821;28;51275;-45
2022/02/08 01:13:44;;;;;;;;;2.25;2.25;;;;;20.69;35.78;102857.94;5031417;28;51279;-45
2022/02/08 01:16:09;;;;;;;;;5.00;2.25;;;;;20.67;35.75;102858.13;5034593;28;51224;-48
2022/02/08 01:18:39;;;;;;;;;2.25;2.25;;;;;20.67;35.29;102852.59;5035034;28;51418;-51
2022/02/08 01:21:04;;;;;;;;;5.75;2.75;;;;;20.65;35.22;102845.56;5034299;28;52749;-46
2022/02/08 01:23:30;;;;;;;;;4.50;4.00;;;;;20.64;35.69;102860.38;5034455;28;51541;-43
2022/02/08 01:25:59;;;;;;;;;3.25;3.25;;;;;20.63;35.71;102859.47;5034719;28;51234;-48
2022/02/08 01:28:40;;;;;;;;;2.00;2.00;;;;;20.62;35.58;102857.75;5035578;28;51097;-49
2022/02/08 01:31:09;;;;;;;;;5.50;3.00;;;;;20.61;35.62;102867.06;5033579;28;52010;-48
2022/02/08 01:38:41;;;;;;;;;4.00;4.00;;;;;20.58;35.62;102864.66;5035059;28;51264;-47
2022/02/08 01:41:28;;;;;;;;;3.50;3.50;;;;;20.58;35.72;102872.94;5033630;28;51299;-46
2022/02/08 01:49:30;;;;;;;;;2.00;2.00;;;;;20.56;35.47;102874.13;5034757;28;50963;-49
2022/02/08 01:51:57;;;;;;;;;4.00;2.25;;;;;20.55;35.29;102873.28;5035186;28;52071;-45
2022/02/08 01:54:23;;;;;;;;;3.00;2.75;;;;;20.54;35.56;102874.31;5035418;28;51053;-50
2022/02/08 01:56:51;;;;;;;;;4.25;3.00;;;;;20.54;35.48;102878.97;5034787;28;51315;-46
2022/02/08 01:59:17;;;;;;;;;3.25;3.25;;;;;20.52;35.25;102870.84;5035343;28;51339;-44
2022/02/08 02:01:43;;;;;;;;;4.25;3.75;;;;;20.52;35.80;102872.75;5034272;28;52034;-47
2022/02/08 02:04:08;;;;;;;;;5.00;4.00;;;;;20.50;35.69;102870.19;5035151;28;51062;-45
2022/02/08 02:06:36;;;;;;;;;5.00;4.00;;;;;20.50;35.21;102872.06;5035375;28;50974;-48
2022/02/08 02:09:02;;;;;;;;;4.75;3.00;;;;;20.49;35.32;102873.97;5034976;28;51293;-44
2022/02/08 02:11:28;;;;;;;;;2.00;2.00;;;;;20.49;35.50;102867.59;5034081;28;51437;-49
2022/02/08 02:13:55;;;;;;;;;3.50;3.00;;;;;20.46;35.47;102866.06;5034258;28;52456;-46
2022/02/08 02:17:08;;;;;;;;;4.50;4.50;;;;;20.46;35.71;102869.69;5035167;28;51342;-45
2022/02/08 02:19:06;;;;;;;;;2.50;2.50;;;;;20.45;35.53;102867.97;5027683;28;51291;-46
2022/02/08 02:21:32;;;;;;;;;8.00;6.25;;;;;20.45;35.73;102861.59;5032564;28;51749;-48
2022/02/08 02:23:57;;;;;;;;;5.00;3.75;;;;;20.44;35.36;102857.97;5033936;28;51089;-47
2022/02/08 02:26:22;;;;;;;;;2.00;2.00;;;;;20.43;35.63;102858.16;5034848;28;51539;-49
2022/02/08 02:28:48;;;;;;;;;7.00;3.00;;;;;20.43;35.69;102863.66;5035093;28;51411;-45
2022/02/08 02:31:16;;;;;;;;;5.00;5.00;;;;;20.41;35.75;102865.66;5034195;28;51770;-46
2022/02/08 02:33:42;;;;;;;;;4.50;4.00;;;;;20.40;35.52;102869.47;5034941;28;51167;-50
2022/02/08 02:36:07;;;;;;;;;5.00;3.00;;;;;20.39;35.42;102863.09;5034846;28;51185;-45
2022/02/08 02:38:33;;;;;;;;;4.50;3.75;;;;;20.39;35.63;102868.59;5034675;28;51061;-48
2022/02/08 02:40:58;;;;;;;;;3.50;3.50;;;;;20.38;35.52;102861.38;5033784;28;52414;-46
2022/02/08 02:43:28;;;;;;;;;3.50;2.75;;;;;20.38;35.90;102855.03;5034157;28;51073;-47
2022/02/08 02:45:53;;;;;;;;;5.50;4.00;;;;;20.37;35.67;102853.31;5031774;28;51189;-46
2022/02/08 02:48:18;;;;;;;;;3.75;3.75;;;;;20.36;35.69;102851.59;5034901;28;51015;-49
2022/02/08 02:50:50;;;;;;;;;5.00;3.00;;;;;20.36;35.52;102860.69;5033611;28;51692;-50
2022/02/08 02:53:16;;;;;;;;;4.00;2.00;;;;;20.35;35.94;102844.38;5034526;28;51428;-48
2022/02/08 02:55:41;;;;;;;;;6.25;4.25;;;;;20.34;35.56;102848.16;5033834;28;51160;-48
2022/02/08 02:58:08;;;;;;;;;4.50;4.00;;;;;20.34;35.62;102850.91;5034749;28;51217;-48
2022/02/08 03:00:37;;;;;;;;;5.50;3.75;;;;;20.33;35.77;102846.44;5033838;28;51822;-46
2022/02/08 03:19:23;;;;;;;;;5.00;4.50;;;;;20.28;35.85;102854.34;5036911;28;51100;-51
2022/02/08 03:21:48;;;;;;;;;3.50;3.50;;;;;20.28;36.00;102860.69;5037063;28;51826;-43
2022/02/08 03:24:14;;;;;;;;;5.25;4.00;;;;;20.27;36.01;102853.47;5037587;28;51085;-45
2022/02/08 03:26:41;;;;;;;;;5.50;4.50;;;;;20.27;35.70;102860.88;5036882;28;51151;-48
2022/02/08 03:29:06;;;;;;;;;4.50;4.00;;;;;20.27;35.98;102866.38;5037079;28;51183;-48
2022/02/08 03:31:31;;;;;;;;;3.25;3.25;;;;;20.25;35.87;102858.31;5035604;28;51187;-44
2022/02/08 03:33:57;;;;;;;;;8.25;3.25;;;;;20.25;35.79;102860.19;5037151;28;50997;-45
2022/02/08 03:36:22;;;;;;;;;6.00;3.25;;;;;20.25;35.86;102860.19;5037022;28;51664;-50
2022/02/08 03:38:59;;;;;;;;;5.00;4.00;;;;;20.24;35.72;102856.59;5037318;28;51199;-46
2022/02/08 03:41:28;;;;;;;;;4.00;4.00;;;;;20.23;35.80;102863.13;5036199;28;52070;-49
2022/02/08 03:43:54;;;;;;;;;4.00;4.00;;;;;20.22;35.82;102864.16;5036951;28;51164;-49
2022/02/08 03:46:22;;;;;;;;;6.00;4.00;;;;;20.21;35.98;102858.78;5036757;28;51197;-51
2022/02/08 03:48:47;;;;;;;;;4.50;3.75;;;;;20.21;35.87;102864.31;5036710;28;51168;-49
2022/02/08 03:51:15;;;;;;;;;5.00;4.00;;;;;20.20;35.67;102863.44;5035466;28;51732;-45
2022/02/08 03:53:44;;;;;;;;;4.25;4.00;;;;;20.21;35.82;102867.06;5036432;28;51471;-48
2022/02/08 03:56:11;;;;;;;;;8.00;3.50;;;;;20.20;35.48;102874.44;5036743;28;51015;-48
2022/02/08 03:58:37;;;;;;;;;3.00;3.00;;;;;20.18;35.55;102871.88;5036331;28;51074;-46
2022/02/08 04:04:10;;;;;;;;;3.25;3.00;;;;;20.17;36.00;102866.56;5036500;28;51212;-48
2022/02/08 04:06:33;;;;;;;;;3.25;3.25;;;;;20.16;36.16;102873.94;5036533;28;51185;-48
2022/02/08 04:09:00;;;;;;;;;3.25;3.25;;;;;20.16;36.02;102868.44;5036536;28;51074;-48
2022/02/08 04:11:25;;;;;;;;;3.25;2.50;;;;;20.14;35.84;102865.00;5035482;28;52810;-46
2022/02/08 04:13:59;;;;;;;;;4.50;3.00;;;;;20.14;36.08;102873.25;5036449;28;51259;-48
2022/02/08 04:16:29;;;;;;;;;4.25;2.25;;;;;20.14;36.16;102866.91;5036776;28;51135;-47
2022/02/08 04:19:16;;;;;;;;;3.50;3.00;;;;;20.12;35.80;102867.06;5027539;28;51284;-45
2022/02/08 04:38:16;;;;;;;;;3.75;3.75;;;;;20.08;36.06;102887.69;5036056;28;50970;-45
2022/02/08 04:43:24;;;;;;;;;3.50;2.25;;;;;20.06;35.71;102876.00;5035348;28;51277;-48
2022/02/08 04:48:50;;;;;;;;;3.00;3.00;;;;;20.05;36.01;102871.53;4965444;28;51283;-50
2022/02/08 04:51:27;;;;;;;;;4.50;3.00;;;;;20.06;35.81;102870.50;5035265;28;51231;-45
2022/02/08 05:45:13;;;;;;;;;1.00;1.00;;;;;19.93;36.12;102872.91;5035263;28;51325;-46
2022/02/08 05:47:42;;;;;;;;;2.25;2.25;;;;;19.94;36.11;102862.75;5034837;28;51679;-45
2022/02/08 05:50:25;;;;;;;;;2.25;2.00;;;;;19.93;36.12;102861.91;5034803;28;51041;-45
2022/02/08 05:53:03;;;;;;;;;2.75;2.00;;;;;19.93;36.12;102866.53;5035089;28;51204;-45
2022/02/08 05:55:31;;;;;;;;;3.00;1.00;;;;;19.92;36.53;102851.94;5028707;28;51687;-46
2022/02/08 05:57:57;;;;;;;;;3.00;3.00;;;;;19.92;36.54;102853.81;5035218;28;51040;-45
2022/02/08 06:00:27;;;;;;;;;4.00;1.50;;;;;19.92;36.30;102854.69;5035004;28;51045;-48
2022/02/08 06:02:56;;;;;;;;;3.75;3.00;;;;;19.91;36.43;102855.72;5034819;28;51103;-43
2022/02/08 06:05:25;;;;;;;;;2.00;2.00;;;;;19.91;36.49;102849.34;5035549;28;51172;-48
2022/02/08 06:07:50;;;;;;;;;1.75;1.75;;;;;19.91;36.21;102846.59;5034158;28;52919;-48
2022/02/08 06:10:16;;;;;;;;;1.50;1.50;;;;;19.89;36.38;102858.59;5034749;28;51009;-43
2022/02/08 06:12:47;;;;;;;;;2.00;2.00;;;;;19.91;36.34;102854.84;5034072;28;51172;-43
2022/02/08 06:15:15;;;;;;;;;3.50;2.50;;;;;19.90;36.18;102862.22;5034650;28;51223;-43
2022/02/08 06:17:40;;;;;;;;;6.75;4.75;;;;;19.87;36.31;102860.69;5034877;28;51267;-46
2022/02/08 06:20:07;;;;;;;;;3.50;2.25;;;;;19.85;36.21;102860.00;5034715;28;50977;-47
2022/02/08 06:22:33;;;;;;;;;5.00;3.50;;;;;19.82;36.13;102859.47;5034643;28;51293;-48
2022/02/08 06:24:59;;;;;;;;;4.25;4.00;;;;;19.79;36.34;102854.28;5035049;28;50970;-47
2022/02/08 06:27:33;;;;;;;;;2.00;2.00;;;;;19.76;36.26;102857.41;5034379;28;51733;-43
2022/02/08 06:29:59;;;;;;;;;5.50;4.25;;;;;19.73;36.50;102866.84;5034645;28;51314;-50
2022/02/08 06:32:27;;;;;;;;;4.75;4.00;;;;;19.71;36.43;102868.06;5033794;28;51716;-45
2022/02/08 06:34:55;;;;;;;;;4.00;4.00;;;;;19.67;36.43;102867.50;5028912;28;51351;-49
2022/02/08 06:37:22;;;;;;;;;4.00;2.75;;;;;19.65;36.94;102868.72;5032318;28;51931;-45
2022/02/08 06:39:48;;;;;;;;;4.50;4.50;;;;;19.60;36.52;102863.75;5031815;28;51453;-48
2022/02/08 06:42:13;;;;;;;;;2.00;2.00;;;;;19.61;36.72;102868.19;5034524;28;51151;-43
2022/02/08 06:44:39;;;;;;;;;2.00;2.00;;;;;19.64;36.74;102869.75;5035177;28;51994;-47
2022/02/08 06:47:04;;;;;;;;;4.25;4.00;;;;;19.70;36.97;102872.69;5036332;28;51778;-48
2022/02/08 06:49:30;;;;;;;;;3.00;0.00;;;;;19.79;36.96;102870.78;5040478;28;51082;-52
2022/02/08 06:51:56;;;;;;;;;4.50;2.50;;;;;19.88;36.71;102872.53;5037037;28;51125;-44
2022/02/08 06:54:21;;;;;;;;;2.00;2.00;;;;;19.98;36.91;102873.25;5035446;28;51234;-45
2022/02/08 06:56:47;;;;;;;;;2.00;2.00;;;;;20.08;37.21;102876.69;5034438;28;51389;-43
2022/02/08 06:59:16;;;;;;;;;3.00;2.00;;;;;20.18;36.57;102876.53;5037126;28;51531;-49
2022/02/08 07:01:41;;;;;;;;;3.25;2.25;;;;;20.27;37.00;102885.66;5036531;28;51503;-46
2022/02/08 07:04:10;;;;;;;;;1.50;1.25;;;;;20.36;36.93;102884.63;5037993;28;50908;-43
2022/02/08 07:06:35;;;;;;;;;2.00;2.00;;;;;20.45;36.66;102883.63;5039331;28;51110;-48
2022/02/08 07:09:01;;;;;;;;;1.00;1.00;;;;;20.55;36.54;102880.69;5036468;28;51163;-48
2022/02/08 07:11:26;;;;;;;;;2.00;2.00;;;;;20.66;37.04;102894.94;5036657;28;51324;-45
2022/02/08 07:13:53;;;;;;;;;1.00;1.00;;;;;20.77;36.95;102888.22;5035481;28;51364;-46
2022/02/08 07:16:19;;;;;;;;;2.75;1.50;;;;;20.88;37.09;102884.22;5034232;28;51841;-47
2022/02/08 07:18:45;;;;;;;;;1.25;1.25;;;;;20.97;37.13;102889.53;5035462;28;51096;-47
2022/02/08 07:21:11;;;;;;;;;2.00;2.00;;;;;21.06;36.83;102884.03;5033700;28;51464;-50
2022/02/08 07:23:37;;;;;;;;;2.00;1.00;;;;;21.14;37.02;102895.00;5012571;28;51175;-48
2022/02/08 07:26:03;;;;;;;;;1.75;1.75;;;;;21.19;36.51;102901.69;5033681;28;51092;-47
2022/02/08 07:28:29;;;;;;;;;1.00;1.00;;;;;21.22;36.60;102900.47;5034722;28;51434;-46
2022/02/08 07:31:07;;;;;;;;;4.50;2.00;;;;;21.23;36.90;102904.94;5033898;28;51321;-46
2022/02/08 07:33:33;;;;;;;;;2.50;1.00;;;;;21.22;36.97;102908.75;5029475;28;51023;-50
2022/02/08 07:36:03;;;;;;;;;2.50;1.50;;;;;21.21;36.62;102921.66;5033273;28;52636;-44
2022/02/08 07:38:35;;;;;;;;;4.00;3.00;;;;;21.18;37.10;102919.28;5034111;28;51397;-45
2022/02/08 07:43:25;;;;;;;;;2.75;2.00;;;;;21.15;37.01;102919.59;5034887;28;52108;-45
2022/02/08 07:45:51;;;;;;;;;4.75;3.00;;;;;21.14;37.36;102915.13;5015394;28;52811;-42
2022/02/08 07:48:16;;;;;;;;;3.00;2.00;;;;;21.18;36.84;102919.28;5030586;28;51129;-45
2022/02/08 07:50:42;;;;;;;;;2.75;2.00;;;;;21.25;37.26;102916.66;5032760;28;51170;-47
2022/02/08 07:53:13;;;;;;;;;4.00;2.00;;;;;21.30;37.31;102917.88;5032051;28;51376;-49
2022/02/08 07:55:40;;;;;;;;;3.25;3.00;;;;;21.40;37.45;102911.31;5013465;28;52281;-46
2022/02/08 07:58:05;;;;;;;;;3.00;2.25;;;;;21.48;37.30;102914.88;5033227;28;51031;-44
2022/02/08 08:00:30;;;;;;;;;4.75;3.00;;;;;21.53;37.05;102912.44;5030589;28;51189;-48
2022/02/08 08:02:56;;;;;;;;;3.25;2.00;;;;;21.55;36.41;102917.78;5030364;28;53289;-45
2022/02/08 08:05:21;;;;;;;;;2.50;2.00;;;;;21.51;36.60;102909.00;5034753;28;51178;-43
2022/02/08 08:07:47;;;;;;;;;2.25;2.25;;;;;21.49;36.43;102907.47;5031551;28;50987;-47
2022/02/08 08:10:17;;;;;;;;;4.00;2.25;;;;;21.42;36.38;102904.56;5034941;28;51102;-48
2022/02/08 08:12:48;;;;;;;;;4.50;2.50;;;;;21.38;36.26;102907.88;5034071;28;51318;-44
2022/02/08 08:15:33;;;;;;;;;2.25;2.25;;;;;21.32;36.45;102898.41;5034086;28;51566;-48
2022/02/08 08:18:02;;;;;;;;;1.00;1.00;;;;;21.28;36.51;102902.56;5033623;28;51389;-43
2022/02/08 08:20:28;;;;;;;;;2.75;2.75;;;;;21.22;36.47;102894.97;5034844;28;51189;-46
2022/02/08 08:22:53;;;;;;;;;4.00;4.00;;;;;21.19;36.52;102889.81;5035275;28;51252;-43
2022/02/08 08:25:19;;;;;;;;;2.25;1.25;;;;;21.16;36.74;102898.44;5027181;28;51121;-46
2022/02/08 08:27:44;;;;;;;;;3.00;2.00;;;;;21.11;36.73;102889.84;5034844;28;51153;-45
2022/02/08 08:30:11;;;;;;;;;2.00;2.00;;;;;21.07;36.25;102894.84;5034594;28;51338;-43
2022/02/08 08:32:39;;;;;;;;;1.25;1.25;;;;;21.05;36.42;102896.94;5034189;28;51368;-49
2022/02/08 08:35:08;;;;;;;;;3.25;2.25;;;;;21.00;36.34;102889.19;5028137;28;52739;-46
2022/02/08 08:37:39;;;;;;;;;1.50;1.50;;;;;20.97;36.41;102894.19;5034553;28;51457;-44
2022/02/08 08:40:15;;;;;;;;;2.50;2.00;;;;;20.93;36.71;102901.06;5034279;28;51196;-46
2022/02/08 08:42:52;;;;;;;;;1.00;1.00;;;;;20.90;36.30;102895.94;5034038;28;50963;-46
2022/02/08 08:50:51;;;;;;;;;4.25;2.00;;;;;20.80;36.54;102904.38;5032403;28;51204;-44
2022/02/08 08:53:16;;;;;;;;;2.75;1.25;;;;;20.77;36.75;102901.13;5034175;28;50931;-48
2022/02/08 08:55:41;;;;;;;;;4.00;2.25;;;;;20.75;36.55;102906.81;5033982;28;51652;-47
2022/02/08 08:58:07;;;;;;;;;3.00;1.50;;;;;20.72;36.70;102902.50;5026605;28;51110;-47
2022/02/08 09:00:32;;;;;;;;;2.00;2.00;;;;;20.69;36.60;102900.09;5034566;28;51043;-47
2022/02/08 09:02:58;;;;;;;;;4.50;3.50;;;;;20.68;36.59;102900.28;5031463;28;51478;-48
2022/02/08 09:05:23;;;;;;;;;4.00;3.00;;;;;20.65;36.77;102901.50;5033671;28;52591;-48
2022/02/08 09:07:49;;;;;;;;;3.25;2.75;;;;;20.63;36.69;102909.03;5034114;28;51125;-45
2022/02/08 09:10:19;;;;;;;;;2.00;2.00;;;;;20.61;36.69;102911.13;5034449;28;51095;-45
2022/02/08 09:18:12;;;;;;;;;2.75;2.75;;;;;20.57;36.74;102900.63;5034880;28;51090;-47
2022/02/08 09:28:41;;;;;;;;;4.00;2.75;;;;;20.47;36.58;102900.81;5034554;28;51072;-48
2022/02/08 09:31:10;;;;;;;;;3.25;2.75;;;;;20.45;36.93;102894.63;5033982;28;51192;-45
2022/02/08 09:33:35;;;;;;;;;4.50;3.00;;;;;20.43;36.81;102896.69;5034303;28;51366;-48
2022/02/08 09:36:01;;;;;;;;;3.00;3.00;;;;;20.41;36.94;102899.56;5034254;28;51299;-49
2022/02/08 09:38:30;;;;;;;;;2.75;2.75;;;;;20.40;36.90;102897.84;5032309;28;51081;-44
2022/02/08 09:40:58;;;;;;;;;2.25;2.25;;;;;20.40;36.98;102902.50;5031637;28;51253;-47
2022/02/08 09:43:24;;;;;;;;;4.75;2.00;;;;;20.38;36.51;102899.06;5034362;28;51209;-48
2022/02/08 09:45:51;;;;;;;;;3.25;3.00;;;;;20.37;36.62;102897.34;5034124;28;51720;-49
2022/02/08 09:48:31;;;;;;;;;3.00;3.00;;;;;20.35;36.63;102893.91;5033894;28;51418;-48
2022/02/08 09:50:57;;;;;;;;;3.00;3.00;;;;;20.34;36.76;102900.44;5033825;28;51315;-46
2022/02/08 09:53:33;;;;;;;;;2.00;1.50;;;;;20.33;36.92;102907.00;5033793;28;51038;-48
2022/02/08 09:55:59;;;;;;;;;4.00;2.50;;;;;20.31;36.65;102893.38;5033028;28;51124;-49
2022/02/08 09:58:25;;;;;;;;;3.00;2.50;;;;;20.32;36.75;102899.72;5032857;28;51172;-45
2022/02/08 10:01:05;;;;;;;;;2.75;2.75;;;;;20.29;36.87;102900.94;5032885;28;51250;-48
2022/02/08 10:03:30;;;;;;;;;2.50;2.50;;;;;20.30;36.95;102907.31;5020948;28;51174;-50
2022/02/08 10:05:56;;;;;;;;;4.00;4.00;;;;;20.28;36.65;102903.88;5033505;28;50919;-45
2022/02/08 10:08:24;;;;;;;;;2.50;2.50;;;;;20.27;37.09;102893.91;5033242;28;51029;-46
2022/02/08 10:10:50;;;;;;;;;3.25;3.25;;;;;20.26;36.84;102895.78;5032619;28;51412;-47
2022/02/08 10:24:04;;;;;;;;;6.25;3.75;;;;;20.22;36.75;102896.28;5037301;28;51123;-48
2022/02/08 10:29:25;;;;;;;;;2.75;2.75;;;;;20.19;36.91;102909.38;5037013;28;51197;-47
2022/02/08 10:40:06;;;;;;;;;3.75;1.75;;;;;20.15;36.91;102901.63;5037180;28;51256;-49
2022/02/08 10:42:32;;;;;;;;;3.00;3.00;;;;;20.15;36.83;102910.75;5034754;28;51101;-42
2022/02/08 10:44:58;;;;;;;;;3.00;3.00;;;;;20.14;37.06;102909.03;5035888;28;51323;-47
2022/02/08 10:47:39;;;;;;;;;6.75;3.00;;;;;20.13;36.95;102901.81;5036428;28;52323;-43
2022/02/08 10:50:06;;;;;;;;;4.25;4.25;;;;;20.13;36.81;102901.81;5035675;28;51533;-45
2022/02/08 10:52:32;;;;;;;;;3.00;3.00;;;;;20.14;37.07;102908.19;5034752;28;51192;-47
2022/02/08 10:55:06;;;;;;;;;4.00;3.00;;;;;20.13;37.09;102914.72;5035529;28;51103;-44
2022/02/08 10:57:44;;;;;;;;;3.00;3.00;;;;;20.12;36.97;102911.09;5035332;28;52222;-43
2022/02/08 11:00:10;;;;;;;;;3.00;3.00;;;;;20.11;37.09;102912.13;5035102;28;51541;-48
2022/02/08 11:02:42;;;;;;;;;2.25;2.25;;;;;20.11;37.26;102903.00;5035903;28;51020;-46
2022/02/08 11:08:02;;;;;;;;;2.00;2.00;;;;;20.09;36.88;102903.16;5035679;28;51214;-45
2022/02/08 11:20:44;;;;;;;;;7.00;4.00;;;;;20.07;36.72;102891.47;5035701;28;51265;-47
2022/02/08 11:23:32;;;;;;;;;5.75;3.00;;;;;20.06;36.93;102889.75;5035767;28;51087;-46
2022/02/08 11:25:58;;;;;;;;;2.75;2.00;;;;;20.06;37.19;102887.00;5033052;28;51886;-44
2022/02/08 11:28:48;;;;;;;;;4.00;2.25;;;;;20.07;37.01;102876.88;5032794;28;53789;-43
2022/02/08 11:31:53;;;;;;;;;6.50;4.00;;;;;20.10;36.81;102877.38;5032638;28;51086;-45
2022/02/08 11:52:40;;;;;;;;;4.25;4.00;;;;;20.85;36.76;102859.81;5029686;28;51218;-50
2022/02/08 12:01:07;;;;;;;;;3.75;3.75;;;;;21.09;36.60;102836.81;5035406;28;51857;-47
2022/02/08 12:06:07;;;;;;;;;5.50;4.00;;;;;21.23;36.00;102841.56;5035538;28;51209;-45
2022/02/08 12:08:32;;;;;;;;;6.25;3.00;;;;;21.26;36.02;102831.09;5034988;28;51118;-47
2022/02/08 12:34:06;;;;;;;;;3.25;3.25;;;;;21.01;36.01;102812.88;4979731;28;51767;-44
2022/02/08 12:56:29;;;;;;;;;4.25;3.00;;;;;20.75;36.86;102774.63;5033378;28;51160;-45
2022/02/08 13:02:08;;;;;;;;;3.00;3.00;;;;;20.70;36.75;102780.63;4990709;28;51330;-45
2022/02/08 13:04:48;;;;;;;;;2.00;2.00;;;;;20.67;36.83;102767.22;5034003;28;52445;-46
2022/02/08 14:10:57;;;;;;;;;2.75;2.75;;;;;20.35;37.73;102732.38;5033331;28;51256;-44
2022/02/08 14:16:00;;;;;;;;;2.00;2.00;;;;;20.33;37.98;102725.34;5033508;28;51101;-46
2022/02/08 14:18:42;;;;;;;;;2.25;2.25;;;;;20.32;38.18;102727.22;5033013;28;51299;-44
2022/02/08 15:08:52;;;;;;;;;1.00;1.00;;;;;20.19;38.26;102719.50;5034742;28;51568;-48
2022/02/08 15:11:17;;;;;;;;;1.75;1.75;;;;;20.19;38.30;102721.38;5034513;28;52794;-48
2022/02/08 15:13:46;;;;;;;;;3.25;3.25;;;;;20.18;38.37;102715.03;5036562;28;51381;-44
2022/02/08 15:19:04;;;;;;;;;3.00;2.00;;;;;20.18;38.22;102719.69;5030288;28;51156;-46
2022/02/08 15:21:33;;;;;;;;;2.50;2.50;;;;;20.17;38.32;102718.81;5036094;28;51055;-44
2022/02/08 15:24:01;;;;;;;;;2.25;2.00;;;;;20.15;38.48;102715.38;5036322;28;51127;-46
2022/02/08 15:26:27;;;;;;;;;1.00;1.00;;;;;20.14;38.26;102721.06;5034527;28;51279;-46
2022/02/08 15:28:52;;;;;;;;;2.25;2.00;;;;;20.14;38.44;102721.94;5034933;28;51156;-44
2022/02/08 15:31:18;;;;;;;;;1.75;1.75;;;;;20.13;38.05;102720.22;5017663;28;51173;-45
2022/02/08 15:33:44;;;;;;;;;6.25;3.25;;;;;20.13;38.13;102722.97;5035803;28;51175;-48
2022/02/08 15:36:10;;;;;;;;;2.75;2.75;;;;;20.12;38.79;102724.00;5035290;28;51147;-49
2022/02/08 15:38:39;;;;;;;;;3.00;3.00;;;;;20.13;38.37;102722.09;5035201;28;51324;-47
2022/02/08 15:41:05;;;;;;;;;3.75;2.75;;;;;20.12;38.37;102721.25;5034944;28;51201;-43
2022/02/08 15:43:30;;;;;;;;;1.75;1.75;;;;;20.11;38.71;102716.78;5035713;28;51424;-46
2022/02/08 15:46:02;;;;;;;;;3.00;3.00;;;;;20.11;38.44;102715.91;5036047;28;51724;-46
2022/02/08 15:48:28;;;;;;;;;4.00;3.00;;;;;20.10;38.25;102723.28;5034996;28;50982;-48
2022/02/08 15:51:04;;;;;;;;;2.75;2.75;;;;;20.10;38.46;102720.53;5034954;28;51708;-46
2022/02/08 15:53:36;;;;;;;;;3.25;3.00;;;;;20.09;38.43;102718.81;5034929;28;51200;-43
2022/02/08 15:56:24;;;;;;;;;4.25;4.00;;;;;20.09;38.39;102712.47;5035085;28;52569;-46
2022/02/08 16:09:25;;;;;;;;;4.00;4.00;;;;;20.06;38.59;102713.69;5031659;28;51025;-46
2022/02/08 16:25:19;;;;;;;;;5.25;4.00;;;;;20.02;38.44;102712.31;5034321;28;51311;-46
2022/02/08 16:54:45;;;;;;;;;5.25;4.50;;;;;19.99;39.11;102715.41;5033127;28;51175;-44
2022/02/08 16:59:38;;;;;;;;;4.25;4.25;;;;;20.12;39.16;102721.25;5034100;28;51160;-44
2022/02/08 17:02:06;;;;;;;;;6.50;4.75;;;;;20.23;38.97;102724.66;5032554;28;51279;-48
2022/02/08 17:04:32;;;;;;;;;4.25;4.25;;;;;20.30;38.70;102718.25;5034150;28;51339;-46
2022/02/08 17:06:58;;;;;;;;;6.50;6.00;;;;;20.38;38.89;102718.25;5030026;28;51097;-47
2022/02/08 17:12:15;;;;;;;;;4.00;4.00;;;;;20.56;38.85;102717.19;5033934;28;51357;-46
2022/02/08 17:49:37;;;;;;;;;6.25;4.25;;;;;21.25;38.67;102729.22;5033258;28;51317;-47
2022/02/08 17:52:02;;;;;;;;;4.75;4.75;;;;;21.25;39.00;102727.31;5031784;28;52689;-45
2022/02/08 17:54:28;;;;;;;;;8.50;6.75;;;;;21.25;39.21;102731.97;5032513;28;52450;-42
2022/02/08 17:56:54;;;;;;;;;7.25;5.00;;;;;21.26;39.12;102734.63;5033167;28;51003;-46
2022/02/08 17:59:24;;;;;;;;;6.25;6.00;;;;;21.27;39.24;102735.47;5031713;28;51095;-43
2022/02/08 18:01:50;;;;;;;;;10.00;5.25;;;;;21.28;39.84;102732.53;5032522;28;51172;-42
2022/02/08 18:04:16;;;;;;;;;5.25;3.50;;;;;21.34;39.29;102739.19;5033510;28;51109;-45
2022/02/08 18:06:41;;;;;;;;;7.25;4.00;;;;;21.41;39.29;102736.56;5032772;28;51395;-46
2022/02/08 18:09:07;;;;;;;;;7.00;4.75;;;;;21.51;39.73;102739.94;5028720;28;51187;-46
2022/02/08 18:11:38;;;;;;;;;7.00;5.00;;;;;21.60;39.09;102736.09;5014624;28;51589;-48
2022/02/08 18:14:05;;;;;;;;;5.25;3.75;;;;;21.63;39.35;102732.94;5033455;28;51521;-47
2022/02/08 18:16:34;;;;;;;;;4.25;3.50;;;;;21.66;39.57;102731.72;5026071;28;51182;-48
2022/02/08 18:19:08;;;;;;;;;4.50;4.50;;;;;21.65;39.64;102732.75;5026106;28;52423;-42
2022/02/08 18:21:38;;;;;;;;;4.75;4.75;;;;;21.65;39.74;102736.38;5031462;28;52067;-43
2022/02/08 18:24:42;;;;;;;;;6.25;3.75;;;;;21.64;40.14;102736.56;5029522;28;51071;-47
2022/02/08 18:54:31;;;;;;;;;4.50;4.25;;;;;21.88;39.18;102733.59;5018730;28;51456;-47
2022/02/08 18:56:50;;;;;;;;;6.00;4.75;;;;;21.86;39.64;102761.38;5031048;28;51173;-48
2022/02/08 19:07:50;;;;;;;;;4.50;4.50;;;;;21.78;39.83;102746.78;5035930;28;51302;-49
2022/02/08 19:13:38;;;;;;;;;6.25;5.00;;;;;21.76;39.64;102744.22;5034510;28;51695;-50
2022/02/08 19:21:31;;;;;;;;;4.25;4.00;;;;;21.89;39.12;102732.56;5032820;28;51118;-50
2022/02/08 19:23:53;;;;;;;;;2.75;2.75;;;;;21.96;39.60;102732.66;5030082;28;51061;-49
2022/02/08 19:26:21;;;;;;;;;4.25;4.25;;;;;22.00;39.61;102725.75;5035348;28;51066;-47
2022/02/08 19:28:49;;;;;;;;;7.50;6.25;;;;;22.00;38.61;102731.25;5033967;28;51474;-45
2022/02/08 19:31:19;;;;;;;;;45.00;37.50;;;;;22.00;38.87;102732.13;5031448;28;52544;-48
2022/02/08 19:33:50;;;;;;;;;93.50;92.50;;;;;22.02;39.26;102737.44;5033297;28;51273;-47